createdAt,value
2023-02-22T00:00:14.532Z,12.26
2023-02-22T00:02:40.915Z,12.26
2023-02-22T00:05:07.339Z,12.28
2023-02-22T00:07:33.720Z,12.27
2023-02-22T00:10:00.126Z,12.12
2023-02-22T00:12:26.667Z,12.04
2023-02-22T00:14:53.118Z,12.02
2023-02-22T00:17:19.497Z,11.94
2023-02-22T00:19:45.869Z,11.81
2023-02-22T00:22:12.273Z,11.69
2023-02-22T00:24:38.633Z,11.68
2023-02-22T00:27:05.012Z,11.66
2023-02-22T00:29:31.380Z,11.68
2023-02-22T00:31:57.978Z,11.65
2023-02-22T00:34:24.453Z,11.65
2023-02-22T00:36:50.817Z,11.63
2023-02-22T00:39:17.207Z,11.64
2023-02-22T00:41:43.631Z,11.65
2023-02-22T00:44:10.105Z,11.67
2023-02-22T00:46:36.486Z,11.68
2023-02-22T00:49:02.857Z,11.70
2023-02-22T00:51:29.214Z,11.64
2023-02-22T00:53:55.578Z,11.68
2023-02-22T00:56:21.939Z,11.64
2023-02-22T00:58:48.315Z,11.70
2023-02-22T01:01:15.117Z,11.63
2023-02-22T01:03:41.662Z,11.62
2023-02-22T01:06:08.337Z,11.55
2023-02-22T01:08:34.714Z,11.53
2023-02-22T01:11:01.111Z,11.52
2023-02-22T01:13:27.468Z,11.40
2023-02-22T01:15:53.874Z,11.39
2023-02-22T01:18:20.238Z,11.35
2023-02-22T01:20:46.637Z,11.32
2023-02-22T01:23:13.008Z,11.28
2023-02-22T01:25:39.394Z,11.29
2023-02-22T01:28:05.763Z,11.24
2023-02-22T01:30:32.199Z,11.20
2023-02-22T01:32:58.655Z,11.19
2023-02-22T01:35:25.035Z,11.17
2023-02-22T01:37:51.447Z,11.14
2023-02-22T01:40:17.849Z,11.15
2023-02-22T01:42:44.239Z,11.15
2023-02-22T01:45:10.632Z,11.17
2023-02-22T01:47:37.010Z,11.12
2023-02-22T01:50:03.389Z,11.14
2023-02-22T01:52:29.745Z,11.07
2023-02-22T01:54:56.147Z,11.05
2023-02-22T01:57:22.566Z,11.08
2023-02-22T01:59:48.936Z,11.07
2023-02-22T02:02:15.313Z,11.02
2023-02-22T02:04:41.737Z,10.91
2023-02-22T02:07:08.103Z,10.79
2023-02-22T02:09:34.471Z,10.84
2023-02-22T02:12:00.833Z,10.81
2023-02-22T02:14:27.225Z,10.86
2023-02-22T02:16:53.742Z,10.77
2023-02-22T02:19:20.130Z,10.74
2023-02-22T02:21:46.507Z,10.75
2023-02-22T02:24:12.892Z,10.78
2023-02-22T02:26:39.270Z,10.83
2023-02-22T02:29:06.775Z,10.82
2023-02-22T02:31:33.180Z,10.80
2023-02-22T02:33:59.594Z,10.70
2023-02-22T02:36:26.025Z,10.73
2023-02-22T02:38:52.400Z,10.73
2023-02-22T02:41:19.039Z,10.76
2023-02-22T02:43:45.569Z,10.74
2023-02-22T02:46:11.979Z,10.76
2023-02-22T02:48:38.371Z,10.79
2023-02-22T02:51:04.750Z,10.77
2023-02-22T02:53:31.142Z,10.77
2023-02-22T02:55:57.532Z,10.73
2023-02-22T02:58:23.909Z,10.66
2023-02-22T03:00:50.270Z,10.65
2023-02-22T03:03:16.686Z,10.66
2023-02-22T03:05:43.042Z,10.60
2023-02-22T03:08:09.461Z,10.66
2023-02-22T03:10:35.821Z,10.59
2023-02-22T03:13:02.224Z,10.63
2023-02-22T03:15:28.579Z,10.66
2023-02-22T03:17:54.979Z,10.69
2023-02-22T03:20:21.365Z,10.60
2023-02-22T03:22:47.726Z,10.49
2023-02-22T03:25:14.132Z,10.56
2023-02-22T03:27:40.515Z,10.60
2023-02-22T03:30:06.947Z,10.59
2023-02-22T03:32:33.344Z,10.29
2023-02-22T03:34:59.735Z,10.12
2023-02-22T03:37:26.086Z,9.91
2023-02-22T03:39:52.490Z,9.69
2023-02-22T03:42:18.856Z,9.52
2023-02-22T03:44:45.228Z,9.81
2023-02-22T03:47:11.627Z,10.07
2023-02-22T03:49:38.041Z,10.09
2023-02-22T03:52:04.451Z,10.17
2023-02-22T03:54:30.836Z,10.18
2023-02-22T03:56:57.218Z,10.23
2023-02-22T03:59:23.603Z,10.26
2023-02-22T04:01:49.997Z,10.26
2023-02-22T04:04:16.444Z,10.32
2023-02-22T04:06:43.969Z,10.32
2023-02-22T04:09:10.335Z,10.33
2023-02-22T04:11:36.731Z,10.38
2023-02-22T04:14:03.136Z,10.10
2023-02-22T04:16:29.511Z,10.00
2023-02-22T04:18:55.928Z,10.14
2023-02-22T04:21:22.299Z,10.10
2023-02-22T04:23:48.679Z,10.16
2023-02-22T04:26:15.034Z,10.25
2023-02-22T04:28:41.425Z,10.02
2023-02-22T04:31:07.816Z,10.15
2023-02-22T04:33:34.229Z,10.28
2023-02-22T04:36:00.625Z,10.36
2023-02-22T04:38:27.000Z,10.20
2023-02-22T04:40:53.416Z,10.17
2023-02-22T04:43:19.773Z,10.13
2023-02-22T04:45:46.125Z,10.24
2023-02-22T04:48:13.771Z,10.06
2023-02-22T04:50:40.154Z,10.13
2023-02-22T04:53:06.538Z,9.76
2023-02-22T04:55:32.961Z,9.62
2023-02-22T04:57:59.341Z,9.84
2023-02-22T05:00:25.701Z,9.82
2023-02-22T05:02:52.086Z,9.80
2023-02-22T05:05:18.494Z,9.91
2023-02-22T05:07:44.873Z,9.95
2023-02-22T05:10:11.303Z,9.97
2023-02-22T05:12:37.653Z,10.01
2023-02-22T05:15:04.031Z,10.07
2023-02-22T05:17:30.453Z,10.18
2023-02-22T05:19:56.829Z,10.19
2023-02-22T05:22:23.206Z,10.19
2023-02-22T05:24:49.596Z,10.28
2023-02-22T05:27:15.964Z,10.10
2023-02-22T05:29:42.359Z,10.15
2023-02-22T05:32:08.788Z,10.14
2023-02-22T05:34:35.190Z,10.01
2023-02-22T05:37:01.573Z,9.98
2023-02-22T05:39:27.980Z,10.03
2023-02-22T05:41:54.352Z,10.29
2023-02-22T05:44:20.950Z,10.23
2023-02-22T05:46:47.437Z,10.08
2023-02-22T05:49:13.864Z,10.06
2023-02-22T05:51:40.303Z,10.05
2023-02-22T05:54:06.666Z,10.13
2023-02-22T05:56:33.018Z,10.07
2023-02-22T05:58:59.380Z,9.96
2023-02-22T06:01:25.797Z,9.93
2023-02-22T06:03:52.177Z,9.89
2023-02-22T06:06:19.629Z,9.82
2023-02-22T06:08:47.510Z,9.87
2023-02-22T06:11:13.860Z,10.00
2023-02-22T06:13:40.246Z,9.93
2023-02-22T06:16:06.625Z,10.01
2023-02-22T06:18:33.022Z,10.23
2023-02-22T06:20:59.391Z,10.63
2023-02-22T06:23:25.779Z,10.52
2023-02-22T06:25:52.163Z,10.32
2023-02-22T06:28:18.593Z,10.05
2023-02-22T06:30:45.029Z,10.04
2023-02-22T06:33:11.480Z,9.84
2023-02-22T06:35:37.843Z,9.90
2023-02-22T06:38:04.246Z,9.63
2023-02-22T06:40:30.639Z,9.68
2023-02-22T06:42:57.025Z,9.77
2023-02-22T06:45:23.391Z,9.90
2023-02-22T06:47:49.880Z,9.82
2023-02-22T06:50:16.260Z,9.78
2023-02-22T06:52:42.644Z,9.82
2023-02-22T06:55:09.086Z,9.96
2023-02-22T06:57:35.474Z,9.96
2023-02-22T07:00:01.855Z,10.03
2023-02-22T07:02:28.236Z,10.04
2023-02-22T07:04:54.607Z,10.01
2023-02-22T07:07:20.977Z,9.78
2023-02-22T07:09:47.366Z,10.16
2023-02-22T07:12:13.766Z,9.84
2023-02-22T07:14:40.154Z,9.55
2023-02-22T07:17:06.532Z,9.35
2023-02-22T07:19:32.902Z,9.44
2023-02-22T07:21:59.535Z,9.32
2023-02-22T07:24:26.076Z,9.49
2023-02-22T07:26:52.467Z,9.42
2023-02-22T07:29:18.848Z,9.16
2023-02-22T07:31:45.243Z,9.22
2023-02-22T07:34:11.662Z,9.36
2023-02-22T07:36:38.023Z,9.37
2023-02-22T07:39:04.414Z,9.59
2023-02-22T07:41:30.786Z,9.51
2023-02-22T07:43:57.177Z,9.37
2023-02-22T07:46:23.585Z,9.58
2023-02-22T07:48:49.970Z,9.40
2023-02-22T07:51:16.584Z,9.28
2023-02-22T07:53:43.173Z,9.26
2023-02-22T07:56:09.536Z,9.29
2023-02-22T07:58:35.944Z,9.47
2023-02-22T08:01:02.459Z,9.18
2023-02-22T08:03:28.926Z,9.28
2023-02-22T08:05:55.362Z,9.27
2023-02-22T08:08:21.794Z,9.18
2023-02-22T08:10:48.173Z,8.94
2023-02-22T08:13:14.560Z,8.96
2023-02-22T08:15:40.996Z,9.20
2023-02-22T08:18:07.422Z,9.19
2023-02-22T08:20:33.801Z,9.26
2023-02-22T08:23:00.182Z,9.15
2023-02-22T08:25:26.550Z,9.13
2023-02-22T08:27:52.915Z,9.27
2023-02-22T08:30:19.356Z,9.35
2023-02-22T08:32:45.811Z,9.05
2023-02-22T08:35:12.209Z,8.63
2023-02-22T08:37:38.609Z,9.13
2023-02-22T08:40:05.017Z,8.99
2023-02-22T08:42:31.386Z,9.19
2023-02-22T08:44:57.755Z,8.96
2023-02-22T08:47:24.143Z,9.12
2023-02-22T08:49:50.497Z,9.13
2023-02-22T08:52:16.945Z,9.12
2023-02-22T08:54:43.414Z,9.24
2023-02-22T08:57:09.788Z,9.16
2023-02-22T08:59:36.164Z,9.29
2023-02-22T09:02:02.519Z,9.13
2023-02-22T09:04:28.912Z,9.36
2023-02-22T09:06:55.302Z,9.24
2023-02-22T09:09:21.675Z,9.14
2023-02-22T09:11:48.036Z,9.33
2023-02-22T09:14:14.439Z,9.34
2023-02-22T09:16:40.900Z,9.69
2023-02-22T09:19:07.337Z,9.63
2023-02-22T09:21:33.706Z,9.64
2023-02-22T09:24:00.097Z,9.75
2023-02-22T09:26:26.454Z,9.70
2023-02-22T09:28:52.824Z,10.18
2023-02-22T09:31:19.560Z,10.28
2023-02-22T09:33:47.506Z,10.48
2023-02-22T09:36:14.279Z,10.82
2023-02-22T09:38:40.784Z,10.15
2023-02-22T09:41:07.171Z,10.41
2023-02-22T09:43:33.545Z,10.65
2023-02-22T09:45:59.967Z,10.64
2023-02-22T09:48:26.344Z,10.15
2023-02-22T09:50:52.727Z,10.55
2023-02-22T09:53:19.145Z,10.41
2023-02-22T09:55:45.566Z,10.47
2023-02-22T09:58:11.942Z,10.97
2023-02-22T10:00:38.336Z,10.89
2023-02-22T10:03:04.715Z,11.52
2023-02-22T10:05:31.139Z,11.44
2023-02-22T10:07:57.544Z,11.40
2023-02-22T10:10:23.996Z,11.61
2023-02-22T10:12:50.434Z,12.15
2023-02-22T10:15:16.816Z,12.36
2023-02-22T10:17:43.186Z,12.62
2023-02-22T10:20:09.556Z,12.81
2023-02-22T10:22:39.052Z,12.33
2023-02-22T10:25:05.454Z,11.83
2023-02-22T10:27:31.874Z,11.67
2023-02-22T10:29:58.417Z,12.07
2023-02-22T10:32:24.830Z,12.05
2023-02-22T10:34:51.207Z,11.83
2023-02-22T10:37:17.602Z,11.91
2023-02-22T10:39:44.076Z,12.37
2023-02-22T10:42:10.472Z,12.58
2023-02-22T10:44:36.840Z,12.13
2023-02-22T10:47:03.242Z,12.00
2023-02-22T10:49:29.605Z,12.37
2023-02-22T10:51:56.011Z,12.30
2023-02-22T10:54:22.377Z,12.39
2023-02-22T10:56:48.795Z,12.46
2023-02-22T10:59:15.180Z,12.32
2023-02-22T11:01:41.633Z,12.57
2023-02-22T11:04:08.005Z,12.40
2023-02-22T11:06:34.435Z,12.11
2023-02-22T11:09:00.818Z,11.96
2023-02-22T11:11:27.203Z,12.34
2023-02-22T11:13:53.606Z,12.27
2023-02-22T11:16:20.034Z,12.29
2023-02-22T11:18:46.431Z,11.88
2023-02-22T11:21:12.854Z,12.14
2023-02-22T11:23:39.223Z,11.82
2023-02-22T11:26:05.600Z,11.82
2023-02-22T11:28:32.004Z,11.78
2023-02-22T11:30:58.513Z,11.27
2023-02-22T11:33:24.977Z,11.25
2023-02-22T11:35:51.348Z,11.37
2023-02-22T11:38:17.737Z,11.16
2023-02-22T11:40:44.112Z,10.95
2023-02-22T11:43:10.481Z,10.99
2023-02-22T11:45:38.577Z,11.43
2023-02-22T11:48:06.467Z,11.12
2023-02-22T11:50:32.861Z,10.99
2023-02-22T11:52:59.223Z,10.77
2023-02-22T11:55:41.471Z,10.74
2023-02-22T11:58:08.975Z,11.16
2023-02-22T12:00:35.349Z,11.48
2023-02-22T12:03:01.838Z,11.71
2023-02-22T12:05:28.292Z,11.81
2023-02-22T12:07:54.661Z,11.61
2023-02-22T12:10:21.061Z,11.27
2023-02-22T12:12:47.430Z,10.51
2023-02-22T12:15:13.834Z,10.90
2023-02-22T12:17:41.790Z,10.83
2023-02-22T12:20:08.285Z,10.75
2023-02-22T12:22:34.712Z,10.67
2023-02-22T12:25:09.403Z,10.53
2023-02-22T12:27:36.323Z,10.61
2023-02-22T12:30:02.728Z,10.38
2023-02-22T12:32:29.171Z,10.43
2023-02-22T12:34:55.608Z,10.45
2023-02-22T12:37:21.996Z,10.53
2023-02-22T12:39:53.867Z,9.98
2023-02-22T12:42:20.516Z,10.31
2023-02-22T12:44:46.880Z,10.40
2023-02-22T12:47:13.337Z,10.16
2023-02-22T12:49:39.728Z,10.06
2023-02-22T12:52:20.640Z,10.33
2023-02-22T12:54:47.899Z,10.52
2023-02-22T12:57:14.289Z,10.67
2023-02-22T12:59:40.680Z,10.43
2023-02-22T13:02:07.128Z,10.28
2023-02-22T13:04:33.502Z,10.47
2023-02-22T13:06:59.874Z,10.37
2023-02-22T13:09:26.250Z,9.80
2023-02-22T13:11:52.607Z,10.21
2023-02-22T13:14:19.017Z,10.18
2023-02-22T13:16:45.411Z,10.15
2023-02-22T13:19:11.773Z,9.82
2023-02-22T13:21:38.196Z,10.11
2023-02-22T13:24:04.605Z,10.15
2023-02-22T13:26:30.976Z,9.65
2023-02-22T13:28:57.390Z,9.55
2023-02-22T13:31:23.809Z,9.78
2023-02-22T13:33:50.195Z,9.71
2023-02-22T13:36:16.894Z,9.90
2023-02-22T13:38:43.555Z,10.25
2023-02-22T13:41:09.996Z,10.43
2023-02-22T13:43:36.357Z,10.76
2023-02-22T13:46:02.754Z,10.63
2023-02-22T13:48:29.140Z,10.89
2023-02-22T13:50:55.502Z,11.20
2023-02-22T13:53:21.895Z,10.99
2023-02-22T13:55:48.268Z,11.19
2023-02-22T13:58:14.661Z,11.10
2023-02-22T14:00:41.049Z,10.86
2023-02-22T14:03:07.462Z,10.83
2023-02-22T14:05:33.859Z,10.91
2023-02-22T14:08:00.273Z,10.81
2023-02-22T14:10:26.675Z,10.76
2023-02-22T14:12:53.051Z,10.85
2023-02-22T14:15:29.140Z,10.84
2023-02-22T14:17:56.269Z,10.72
2023-02-22T14:20:22.656Z,10.45
2023-02-22T14:22:49.114Z,10.55
2023-02-22T14:25:27.799Z,10.58
2023-02-22T14:27:54.601Z,10.56
2023-02-22T14:30:21.008Z,10.66
2023-02-22T14:32:47.594Z,10.74
2023-02-22T14:35:25.242Z,10.68
2023-02-22T14:37:53.635Z,10.60
2023-02-22T14:40:20.130Z,10.67
2023-02-22T14:42:46.590Z,10.80
2023-02-22T14:45:12.995Z,10.69
2023-02-22T14:47:39.411Z,10.89
2023-02-22T14:50:05.805Z,10.71
2023-02-22T14:52:32.198Z,10.57
2023-02-22T14:54:58.580Z,10.63
2023-02-22T14:57:24.952Z,10.75
2023-02-22T14:59:51.330Z,10.75
2023-02-22T15:02:17.745Z,10.76
2023-02-22T15:04:44.328Z,10.76
2023-02-22T15:07:10.740Z,11.01
2023-02-22T15:09:37.119Z,11.21
2023-02-22T15:12:03.506Z,11.09
2023-02-22T15:14:29.878Z,10.97
2023-02-22T15:16:56.259Z,11.27
2023-02-22T15:19:22.639Z,11.20
2023-02-22T15:21:49.005Z,11.17
2023-02-22T15:24:15.393Z,11.10
2023-02-22T15:26:49.165Z,10.76
2023-02-22T15:29:21.920Z,10.78
2023-02-22T15:31:48.713Z,11.00
2023-02-22T15:34:15.368Z,10.93
2023-02-22T15:36:41.872Z,10.84
2023-02-22T15:39:08.240Z,10.93
2023-02-22T15:41:34.737Z,10.78
2023-02-22T15:44:05.405Z,10.60
2023-02-22T15:46:34.476Z,10.56
2023-02-22T15:49:00.856Z,10.35
2023-02-22T15:51:27.238Z,10.23
2023-02-22T15:53:53.608Z,10.48
2023-02-22T15:56:19.978Z,10.58
2023-02-22T15:58:46.357Z,10.65
2023-02-22T16:01:12.736Z,10.82
2023-02-22T16:03:39.185Z,10.78
2023-02-22T16:06:05.933Z,10.76
2023-02-22T16:08:33.572Z,10.50
2023-02-22T16:11:00.005Z,10.68
2023-02-22T16:13:31.949Z,10.26
2023-02-22T16:15:59.003Z,10.16
2023-02-22T16:18:25.380Z,10.18
2023-02-22T16:20:51.806Z,10.32
2023-02-22T16:23:18.192Z,10.45
2023-02-22T16:25:44.549Z,10.31
2023-02-22T16:28:10.940Z,10.31
2023-02-22T16:30:37.417Z,10.33
2023-02-22T16:33:03.873Z,10.34
2023-02-22T16:35:30.237Z,10.74
2023-02-22T16:37:56.648Z,10.83
2023-02-22T16:40:23.022Z,10.79
2023-02-22T16:42:49.412Z,10.89
2023-02-22T16:45:15.778Z,11.09
2023-02-22T16:47:42.152Z,10.84
2023-02-22T16:50:08.551Z,10.79
2023-02-22T16:52:34.935Z,10.83
2023-02-22T16:55:01.325Z,10.73
2023-02-22T16:57:27.686Z,10.98
2023-02-22T16:59:54.083Z,10.78
2023-02-22T17:02:20.468Z,10.72
2023-02-22T17:04:46.906Z,10.62
2023-02-22T17:07:13.280Z,10.62
2023-02-22T17:09:39.657Z,10.24
2023-02-22T17:12:06.028Z,10.19
2023-02-22T17:14:32.417Z,10.19
2023-02-22T17:16:58.794Z,10.24
2023-02-22T17:19:28.193Z,10.42
2023-02-22T17:21:54.571Z,10.67
2023-02-22T17:24:20.973Z,10.59
2023-02-22T17:26:47.369Z,10.30
2023-02-22T17:29:13.758Z,10.47
2023-02-22T17:31:40.245Z,10.45
2023-02-22T17:34:06.705Z,10.54
2023-02-22T17:36:33.096Z,10.42
2023-02-22T17:38:59.675Z,10.31
2023-02-22T17:41:26.073Z,10.57
2023-02-22T17:43:52.434Z,10.70
2023-02-22T17:46:19.087Z,10.40
2023-02-22T17:48:45.668Z,10.32
2023-02-22T17:51:13.193Z,10.41
2023-02-22T17:53:39.596Z,10.66
2023-02-22T17:56:05.955Z,10.78
2023-02-22T17:58:32.377Z,10.73
2023-02-22T18:00:58.818Z,10.71
2023-02-22T18:03:25.930Z,10.62
2023-02-22T18:05:54.944Z,10.65
2023-02-22T18:08:22.360Z,10.67
2023-02-22T18:10:48.723Z,10.86
2023-02-22T18:13:15.114Z,10.82
2023-02-22T18:15:41.515Z,10.81
2023-02-22T18:18:07.987Z,10.67
2023-02-22T18:20:34.376Z,10.67
2023-02-22T18:23:00.772Z,10.52
2023-02-22T18:25:27.157Z,10.66
2023-02-22T18:27:53.558Z,10.66
2023-02-22T18:30:19.971Z,10.56
2023-02-22T18:32:46.361Z,10.51
2023-02-22T18:35:12.749Z,10.55
2023-02-22T18:37:39.127Z,10.64
2023-02-22T18:40:05.516Z,10.52
2023-02-22T18:42:31.906Z,10.37
2023-02-22T18:44:58.362Z,10.36
2023-02-22T18:47:24.742Z,10.51
2023-02-22T18:49:51.105Z,10.64
2023-02-22T18:52:17.485Z,10.56
2023-02-22T18:54:43.853Z,10.57
2023-02-22T18:57:10.257Z,10.57
2023-02-22T18:59:36.653Z,10.45
2023-02-22T19:02:03.048Z,10.58
2023-02-22T19:04:29.445Z,10.60
2023-02-22T19:06:55.817Z,10.54
2023-02-22T19:09:22.235Z,10.62
2023-02-22T19:11:48.652Z,10.62
2023-02-22T19:14:15.058Z,10.44
2023-02-22T19:16:41.457Z,10.47
2023-02-22T19:19:07.852Z,10.64
2023-02-22T19:21:34.248Z,10.37
2023-02-22T19:24:00.630Z,10.26
2023-02-22T19:26:27.042Z,10.35
2023-02-22T19:28:53.402Z,10.25
2023-02-22T19:31:20.169Z,10.27
2023-02-22T19:33:46.946Z,10.39
2023-02-22T19:36:14.566Z,10.65
2023-02-22T19:38:40.949Z,10.56
2023-02-22T19:41:10.047Z,10.52
2023-02-22T19:43:36.803Z,10.55
2023-02-22T19:46:03.305Z,10.56
2023-02-22T19:48:29.723Z,10.44
2023-02-22T19:50:56.086Z,10.46
2023-02-22T19:53:22.464Z,10.37
2023-02-22T19:55:48.869Z,10.24
2023-02-22T19:58:15.273Z,10.30
2023-02-22T20:00:41.661Z,10.34
2023-02-22T20:03:08.129Z,10.46
2023-02-22T20:05:34.534Z,10.57
2023-02-22T20:08:00.926Z,10.79
2023-02-22T20:10:27.340Z,10.81
2023-02-22T20:12:53.745Z,10.91
2023-02-22T20:15:20.145Z,10.89
2023-02-22T20:17:46.522Z,10.78
2023-02-22T20:20:12.908Z,10.85
2023-02-22T20:22:39.360Z,10.85
2023-02-22T20:25:05.761Z,10.54
2023-02-22T20:27:32.215Z,10.69
2023-02-22T20:29:58.608Z,10.57
2023-02-22T20:32:25.126Z,10.54
2023-02-22T20:34:51.683Z,10.79
2023-02-22T20:37:18.078Z,10.76
2023-02-22T20:39:44.465Z,10.82
2023-02-22T20:42:10.855Z,10.64
2023-02-22T20:44:37.209Z,10.63
2023-02-22T20:47:03.638Z,10.55
2023-02-22T20:49:30.063Z,10.46
2023-02-22T20:51:56.437Z,10.54
2023-02-22T20:54:22.952Z,10.59
2023-02-22T20:56:50.697Z,10.75
2023-02-22T20:59:18.120Z,10.70
2023-02-22T21:01:44.522Z,10.43
2023-02-22T21:04:10.897Z,10.53
2023-02-22T21:06:37.292Z,10.52
2023-02-22T21:09:03.693Z,10.49
2023-02-22T21:11:30.081Z,10.60
2023-02-22T21:13:56.484Z,10.64
2023-02-22T21:16:22.920Z,10.45
2023-02-22T21:18:49.353Z,10.57
2023-02-22T21:21:15.884Z,10.49
2023-02-22T21:23:42.354Z,10.42
2023-02-22T21:26:08.736Z,10.66
2023-02-22T21:28:50.400Z,10.55
2023-02-22T21:31:17.971Z,10.42
2023-02-22T21:33:44.582Z,10.34
2023-02-22T21:36:11.024Z,10.23
2023-02-22T21:38:37.408Z,10.39
2023-02-22T21:41:03.782Z,10.30
2023-02-22T21:43:30.185Z,10.39
2023-02-22T21:45:56.636Z,10.29
2023-02-22T21:48:23.025Z,10.38
2023-02-22T21:50:52.460Z,10.44
2023-02-22T21:53:18.837Z,10.35
2023-02-22T21:55:45.222Z,10.30
2023-02-22T21:58:11.599Z,10.28
2023-02-22T22:00:38.031Z,10.34
2023-02-22T22:03:04.491Z,10.20
2023-02-22T22:05:30.866Z,10.15
2023-02-22T22:07:57.247Z,10.16
2023-02-22T22:10:23.627Z,9.95
2023-02-22T22:12:50.049Z,10.01
2023-02-22T22:15:16.465Z,9.85
2023-02-22T22:17:42.853Z,9.80
2023-02-22T22:20:09.227Z,10.06
2023-02-22T22:22:35.597Z,10.03
2023-02-22T22:25:01.970Z,10.26
2023-02-22T22:27:28.340Z,10.17
2023-02-22T22:29:54.766Z,10.19
2023-02-22T22:32:21.210Z,10.28
2023-02-22T22:34:47.599Z,10.59
2023-02-22T22:37:13.955Z,10.65
2023-02-22T22:39:40.350Z,10.72
2023-02-22T22:42:06.758Z,10.56
2023-02-22T22:44:33.221Z,10.66
2023-02-22T22:46:59.622Z,10.62
2023-02-22T22:49:26.044Z,10.53
2023-02-22T22:51:52.412Z,10.54
2023-02-22T22:54:18.841Z,10.58
2023-02-22T22:56:45.212Z,10.81
2023-02-22T22:59:11.570Z,10.72
2023-02-22T23:01:37.951Z,10.85
2023-02-22T23:04:04.309Z,10.73
2023-02-22T23:06:30.820Z,10.92
2023-02-22T23:08:57.225Z,11.04
2023-02-22T23:11:23.577Z,10.88
2023-02-22T23:13:49.945Z,10.79
2023-02-22T23:16:16.321Z,10.79
2023-02-22T23:18:42.771Z,10.89
2023-02-22T23:21:09.136Z,10.57
2023-02-22T23:23:35.512Z,10.53
2023-02-22T23:26:01.879Z,10.28
2023-02-22T23:28:28.280Z,10.17
2023-02-22T23:30:54.771Z,10.23
2023-02-22T23:33:21.206Z,10.43
2023-02-22T23:35:47.574Z,10.38
2023-02-22T23:38:13.970Z,10.52
2023-02-22T23:40:40.337Z,10.65
2023-02-22T23:43:06.720Z,10.76
2023-02-22T23:45:33.123Z,10.96
2023-02-22T23:47:59.510Z,10.94
2023-02-22T23:50:25.893Z,10.95
2023-02-22T23:52:52.282Z,10.64
2023-02-22T23:55:18.700Z,10.35
2023-02-22T23:57:45.065Z,10.21
